Time;durP1;ratioP1;P1;durP2;ratioP2;P2;SDS_P1;SDS_P2;PMS_P1;PMS_P2;Temp;Humidity;BMP_temperature;BMP_pressure;BME280_temperature;BME280_humidity;BME280_pressure;Samples;Min_cycle;Max_cycle;Signal;HPM_P1;HPM_P2
2023/12/21 00:01:50;;;;;;;0.10;0.10;;;;;;;;;;10339717;28;20790;-76
2023/12/21 00:06:51;;;;;;;0.15;0.15;;;;;;;;;;10344037;28;20204;-76
2023/12/21 00:11:52;;;;;;;0.10;0.10;;;;;;;;;;10343479;28;20227;-77
2023/12/21 00:16:53;;;;;;;0.20;0.20;;;;;;;;;;10336130;28;20208;-76
2023/12/21 00:21:54;;;;;;;0.10;0.10;;;;;;;;;;10349145;28;20266;-76
2023/12/21 00:26:55;;;;;;;0.10;0.10;;;;;;;;;;10336784;28;20257;-76
2023/12/21 00:31:56;;;;;;;0.20;0.20;;;;;;;;;;10340350;28;20299;-76
2023/12/21 00:36:57;;;;;;;0.10;0.10;;;;;;;;;;10340599;28;20210;-77
2023/12/21 00:41:58;;;;;;;0.13;0.13;;;;;;;;;;10336836;28;20217;-77
2023/12/21 00:46:59;;;;;;;0.00;0.00;;;;;;;;;;10340555;28;20230;-76
2023/12/21 00:52:00;;;;;;;0.10;0.10;;;;;;;;;;10342207;28;20303;-77
2023/12/21 00:57:01;;;;;;;0.20;0.20;;;;;;;;;;10338782;28;20207;-76
2023/12/21 01:02:02;;;;;;;0.52;0.10;;;;;;;;;;10336041;28;20741;-75
2023/12/21 01:07:03;;;;;;;0.10;0.10;;;;;;;;;;10349065;28;20222;-76
2023/12/21 01:12:06;;;;;;;0.10;0.10;;;;;;;;;;10341658;28;20220;-76
2023/12/21 01:17:06;;;;;;;0.10;0.10;;;;;;;;;;10323865;28;20250;-76
2023/12/21 01:22:07;;;;;;;0.22;0.10;;;;;;;;;;10334082;28;20345;-75
2023/12/21 01:27:08;;;;;;;0.20;0.20;;;;;;;;;;10340293;28;20254;-75
2023/12/21 01:32:09;;;;;;;0.10;0.10;;;;;;;;;;10338633;28;20294;-75
2023/12/21 01:37:10;;;;;;;0.10;0.10;;;;;;;;;;10327136;28;20208;-76
2023/12/21 01:42:11;;;;;;;0.10;0.10;;;;;;;;;;10327350;28;20214;-75
2023/12/21 01:47:13;;;;;;;0.10;0.10;;;;;;;;;;10335169;28;20978;-76
2023/12/21 01:52:14;;;;;;;0.20;0.20;;;;;;;;;;10335945;28;20224;-76
2023/12/21 01:57:15;;;;;;;0.10;0.10;;;;;;;;;;10332293;28;20838;-76
2023/12/21 02:02:17;;;;;;;0.20;0.20;;;;;;;;;;10340206;28;20247;-76
2023/12/21 02:07:18;;;;;;;0.10;0.10;;;;;;;;;;10339125;28;20266;-75
2023/12/21 02:12:19;;;;;;;0.20;0.20;;;;;;;;;;10330758;28;20248;-75
2023/12/21 02:17:21;;;;;;;0.10;0.10;;;;;;;;;;10353272;28;20315;-77
2023/12/21 02:22:23;;;;;;;0.10;0.10;;;;;;;;;;10321357;28;20220;-76
2023/12/21 02:27:24;;;;;;;0.10;0.10;;;;;;;;;;10329163;28;20201;-76
2023/12/21 02:32:25;;;;;;;0.10;0.10;;;;;;;;;;10358217;28;20211;-76
2023/12/21 02:37:26;;;;;;;0.20;0.20;;;;;;;;;;10351118;28;20298;-75
2023/12/21 02:42:27;;;;;;;0.10;0.10;;;;;;;;;;10323683;28;20208;-76
2023/12/21 02:47:28;;;;;;;0.10;0.10;;;;;;;;;;10335320;28;20253;-75
2023/12/21 02:52:29;;;;;;;0.20;0.20;;;;;;;;;;10334539;28;20621;-75
2023/12/21 02:57:30;;;;;;;0.95;0.20;;;;;;;;;;10327544;28;20307;-75
2023/12/21 03:02:31;;;;;;;0.10;0.10;;;;;;;;;;10333305;28;20220;-75
2023/12/21 03:07:33;;;;;;;0.10;0.10;;;;;;;;;;10339284;28;20203;-76
2023/12/21 03:12:34;;;;;;;0.20;0.20;;;;;;;;;;10320616;28;20220;-76
2023/12/21 03:17:35;;;;;;;0.20;0.20;;;;;;;;;;10333724;28;20266;-75
2023/12/21 03:22:36;;;;;;;0.15;0.15;;;;;;;;;;10336850;28;20818;-75
2023/12/21 03:27:37;;;;;;;0.20;0.20;;;;;;;;;;10343125;28;20725;-74
2023/12/21 03:32:38;;;;;;;0.20;0.20;;;;;;;;;;10342203;28;20235;-75
2023/12/21 03:37:39;;;;;;;1.45;0.20;;;;;;;;;;10335006;28;20215;-75
2023/12/21 03:42:42;;;;;;;0.10;0.10;;;;;;;;;;10343700;28;20218;-76
2023/12/21 03:47:43;;;;;;;0.52;0.20;;;;;;;;;;10349302;28;20232;-74
2023/12/21 03:52:44;;;;;;;0.15;0.15;;;;;;;;;;10347239;28;20314;-77
2023/12/21 03:57:45;;;;;;;1.02;0.20;;;;;;;;;;10338219;28;20226;-74
2023/12/21 04:02:46;;;;;;;0.17;0.17;;;;;;;;;;10341063;28;20218;-74
2023/12/21 04:07:47;;;;;;;0.10;0.10;;;;;;;;;;10346043;28;20208;-74
2023/12/21 04:12:48;;;;;;;0.25;0.20;;;;;;;;;;10337609;28;20593;-75
2023/12/21 04:17:49;;;;;;;1.55;0.20;;;;;;;;;;10344202;28;20200;-76
2023/12/21 04:22:50;;;;;;;0.20;0.20;;;;;;;;;;10321178;28;20354;-75
2023/12/21 04:27:51;;;;;;;0.10;0.10;;;;;;;;;;10339743;28;20941;-76
2023/12/21 04:32:52;;;;;;;0.20;0.20;;;;;;;;;;10351131;28;20389;-78
2023/12/21 04:37:53;;;;;;;0.15;0.15;;;;;;;;;;10338496;28;20216;-76
2023/12/21 04:42:55;;;;;;;0.20;0.20;;;;;;;;;;10335957;28;20575;-74
2023/12/21 04:47:56;;;;;;;0.57;0.20;;;;;;;;;;10334403;28;21089;-76
2023/12/21 04:52:57;;;;;;;0.10;0.10;;;;;;;;;;10342913;28;20230;-75
2023/12/21 04:57:58;;;;;;;0.10;0.10;;;;;;;;;;10334022;28;20679;-74
2023/12/21 05:02:59;;;;;;;0.17;0.17;;;;;;;;;;10336387;28;20217;-75
2023/12/21 05:08:00;;;;;;;0.10;0.10;;;;;;;;;;10336595;28;20203;-75
2023/12/21 05:13:01;;;;;;;0.20;0.20;;;;;;;;;;10339761;28;20212;-76
2023/12/21 05:18:02;;;;;;;0.43;0.10;;;;;;;;;;10335580;28;20204;-75
2023/12/21 05:23:04;;;;;;;0.10;0.10;;;;;;;;;;10328768;28;20220;-77
2023/12/21 05:28:05;;;;;;;0.10;0.10;;;;;;;;;;10346324;28;20209;-76
2023/12/21 05:33:06;;;;;;;0.10;0.10;;;;;;;;;;10330916;28;20224;-76
2023/12/21 05:38:07;;;;;;;0.10;0.10;;;;;;;;;;10336662;28;20825;-75
2023/12/21 05:43:08;;;;;;;0.10;0.10;;;;;;;;;;10334872;28;20211;-74
2023/12/21 05:48:09;;;;;;;0.10;0.10;;;;;;;;;;10330970;28;20220;-76
2023/12/21 05:53:10;;;;;;;0.03;0.03;;;;;;;;;;10333517;28;20217;-75
2023/12/21 05:58:11;;;;;;;0.10;0.10;;;;;;;;;;10333390;28;20216;-75
2023/12/21 06:03:12;;;;;;;0.10;0.10;;;;;;;;;;10339854;28;20220;-76
2023/12/21 06:08:13;;;;;;;0.10;0.10;;;;;;;;;;10329563;28;20208;-75
2023/12/21 06:13:14;;;;;;;0.10;0.10;;;;;;;;;;10338866;28;20275;-74
2023/12/21 06:18:15;;;;;;;2.28;0.20;;;;;;;;;;10348328;28;20255;-75
2023/12/21 06:23:16;;;;;;;0.10;0.10;;;;;;;;;;10328691;28;20222;-76
2023/12/21 06:28:17;;;;;;;0.10;0.10;;;;;;;;;;10339229;28;20207;-74
2023/12/21 06:33:18;;;;;;;0.20;0.20;;;;;;;;;;10321250;28;20342;-74
2023/12/21 06:38:19;;;;;;;0.20;0.20;;;;;;;;;;10332571;28;20950;-75
2023/12/21 06:43:22;;;;;;;0.30;0.30;;;;;;;;;;10341274;28;20363;-75
2023/12/21 06:48:23;;;;;;;0.80;0.30;;;;;;;;;;10322935;28;20425;-76
2023/12/21 06:53:24;;;;;;;0.20;0.20;;;;;;;;;;10339047;28;20711;-74
2023/12/21 06:58:27;;;;;;;0.20;0.20;;;;;;;;;;10338153;28;20206;-75
2023/12/21 07:03:28;;;;;;;0.20;0.20;;;;;;;;;;10315488;28;20216;-76
2023/12/21 07:08:29;;;;;;;0.20;0.20;;;;;;;;;;10327698;28;20215;-76
2023/12/21 07:13:30;;;;;;;1.75;0.40;;;;;;;;;;10332506;28;20295;-75
2023/12/21 07:18:31;;;;;;;0.30;0.30;;;;;;;;;;10330931;28;20201;-75
2023/12/21 07:23:32;;;;;;;0.20;0.20;;;;;;;;;;10326999;28;20208;-76
2023/12/21 07:28:35;;;;;;;0.20;0.20;;;;;;;;;;10346640;28;20228;-75
2023/12/21 07:33:37;;;;;;;0.10;0.10;;;;;;;;;;10319745;28;20216;-76
2023/12/21 07:38:40;;;;;;;0.50;0.50;;;;;;;;;;10327413;28;20772;-74
2023/12/21 07:43:41;;;;;;;0.30;0.30;;;;;;;;;;10329191;28;20219;-75
2023/12/21 07:48:42;;;;;;;0.00;0.00;;;;;;;;;;10324123;28;20224;-76
2023/12/21 07:53:43;;;;;;;0.20;0.20;;;;;;;;;;10316194;28;20255;-76
2023/12/21 07:58:44;;;;;;;0.08;0.08;;;;;;;;;;10322831;28;20208;-78
2023/12/21 08:03:45;;;;;;;0.05;0.05;;;;;;;;;;10319261;28;20295;-77
2023/12/21 08:08:47;;;;;;;0.10;0.10;;;;;;;;;;10327159;28;20212;-76
2023/12/21 08:13:48;;;;;;;0.10;0.10;;;;;;;;;;10319194;28;20224;-76
2023/12/21 08:18:49;;;;;;;0.38;0.00;;;;;;;;;;10321664;28;20658;-74
2023/12/21 08:23:50;;;;;;;0.10;0.10;;;;;;;;;;10320439;28;20286;-77
2023/12/21 08:28:52;;;;;;;0.10;0.10;;;;;;;;;;10322986;28;20581;-76
2023/12/21 08:33:53;;;;;;;0.10;0.10;;;;;;;;;;10327736;28;20960;-76
2023/12/21 08:38:54;;;;;;;0.10;0.10;;;;;;;;;;10318632;28;20837;-76
2023/12/21 08:43:55;;;;;;;0.60;0.40;;;;;;;;;;10333441;28;20232;-79
2023/12/21 08:48:56;;;;;;;0.35;0.30;;;;;;;;;;10316107;28;20310;-77
2023/12/21 08:53:57;;;;;;;0.20;0.20;;;;;;;;;;10325089;28;20216;-77
2023/12/21 08:58:58;;;;;;;0.00;0.00;;;;;;;;;;10314507;28;20212;-77
2023/12/21 09:04:00;;;;;;;0.10;0.10;;;;;;;;;;10328987;28;20920;-78
2023/12/21 09:09:04;;;;;;;0.20;0.10;;;;;;;;;;10329390;28;20212;-78
2023/12/21 09:14:07;;;;;;;0.10;0.10;;;;;;;;;;10324698;28;20698;-77
2023/12/21 09:19:08;;;;;;;0.10;0.10;;;;;;;;;;10333956;28;20804;-77
2023/12/21 09:24:09;;;;;;;0.03;0.03;;;;;;;;;;10337119;28;20220;-77
2023/12/21 09:29:10;;;;;;;0.10;0.10;;;;;;;;;;10336676;28;20725;-77
2023/12/21 09:34:11;;;;;;;0.10;0.10;;;;;;;;;;10344114;28;20212;-77
2023/12/21 09:39:12;;;;;;;0.10;0.10;;;;;;;;;;10332397;28;20219;-79
2023/12/21 09:44:17;;;;;;;0.10;0.10;;;;;;;;;;10330966;28;20270;-80
2023/12/21 09:49:18;;;;;;;0.40;0.10;;;;;;;;;;10339517;28;20219;-83
2023/12/21 09:54:20;;;;;;;0.00;0.00;;;;;;;;;;10345844;28;20305;-80
2023/12/21 09:59:21;;;;;;;2.83;0.10;;;;;;;;;;10336432;28;20196;-76
2023/12/21 10:04:22;;;;;;;0.10;0.10;;;;;;;;;;10311567;28;20213;-78
2023/12/21 10:09:24;;;;;;;0.17;0.17;;;;;;;;;;10335509;28;20714;-77
2023/12/21 10:14:25;;;;;;;0.25;0.10;;;;;;;;;;10325365;28;20215;-77
2023/12/21 10:19:26;;;;;;;0.05;0.03;;;;;;;;;;10333045;28;20215;-77
2023/12/21 10:24:27;;;;;;;0.52;0.10;;;;;;;;;;10319737;28;20294;-77
2023/12/21 10:29:28;;;;;;;0.10;0.10;;;;;;;;;;10336749;28;20212;-77
2023/12/21 10:34:29;;;;;;;0.10;0.10;;;;;;;;;;10324132;28;20224;-76
2023/12/21 10:39:30;;;;;;;0.10;0.10;;;;;;;;;;10310468;28;20530;-76
2023/12/21 10:44:33;;;;;;;0.00;0.00;;;;;;;;;;10311101;28;20410;-77
2023/12/21 10:49:34;;;;;;;0.00;0.00;;;;;;;;;;10317877;28;20376;-78
2023/12/21 10:54:36;;;;;;;0.10;0.10;;;;;;;;;;10309543;28;20503;-77
2023/12/21 10:59:37;;;;;;;0.10;0.10;;;;;;;;;;10330038;28;21840;-77
2023/12/21 11:04:39;;;;;;;0.10;0.10;;;;;;;;;;10324180;28;20707;-77
2023/12/21 11:09:41;;;;;;;0.10;0.10;;;;;;;;;;10332847;28;20651;-77
2023/12/21 11:14:42;;;;;;;0.10;0.10;;;;;;;;;;10327044;28;20266;-77
2023/12/21 11:19:43;;;;;;;0.20;0.20;;;;;;;;;;10335977;28;20265;-76
2023/12/21 11:24:44;;;;;;;0.10;0.10;;;;;;;;;;10325345;28;20240;-77
2023/12/21 11:29:45;;;;;;;0.20;0.20;;;;;;;;;;10337459;28;20264;-78
2023/12/21 11:34:49;;;;;;;0.10;0.10;;;;;;;;;;10324726;28;20219;-75
2023/12/21 11:39:53;;;;;;;0.10;0.10;;;;;;;;;;10330769;28;20208;-75
2023/12/21 11:45:00;;;;;;;0.10;0.10;;;;;;;;;;10326987;28;20212;-77
2023/12/21 11:50:08;;;;;;;0.10;0.10;;;;;;;;;;10325673;28;20277;-77
2023/12/21 11:55:09;;;;;;;0.10;0.10;;;;;;;;;;10320852;28;20307;-77
2023/12/21 12:00:18;;;;;;;0.00;0.00;;;;;;;;;;10325314;28;20227;-76
2023/12/21 12:05:22;;;;;;;0.00;0.00;;;;;;;;;;10338592;28;20212;-74
2023/12/21 12:10:23;;;;;;;0.00;0.00;;;;;;;;;;10331902;28;20208;-76
2023/12/21 12:15:24;;;;;;;0.75;0.00;;;;;;;;;;10343894;28;20224;-76
2023/12/21 12:20:25;;;;;;;0.10;0.10;;;;;;;;;;10342071;28;20299;-74
2023/12/21 12:25:26;;;;;;;0.08;0.08;;;;;;;;;;10318665;28;20610;-77
2023/12/21 12:30:28;;;;;;;0.90;0.10;;;;;;;;;;10347057;28;20207;-78
2023/12/21 12:35:31;;;;;;;0.00;0.00;;;;;;;;;;10311355;28;20212;-77
2023/12/21 12:40:33;;;;;;;0.30;0.00;;;;;;;;;;10309311;28;20219;-77
2023/12/21 12:45:34;;;;;;;0.00;0.00;;;;;;;;;;10318784;28;20219;-77
2023/12/21 12:50:35;;;;;;;0.10;0.10;;;;;;;;;;10352979;28;20200;-77
2023/12/21 12:55:36;;;;;;;0.10;0.10;;;;;;;;;;10331919;28;20219;-78
2023/12/21 13:00:38;;;;;;;0.10;0.10;;;;;;;;;;10349457;28;20219;-75
2023/12/21 13:05:39;;;;;;;0.00;0.00;;;;;;;;;;10334976;28;20506;-77
2023/12/21 13:10:40;;;;;;;0.08;0.08;;;;;;;;;;10313210;28;20228;-75
2023/12/21 13:15:41;;;;;;;0.10;0.10;;;;;;;;;;10334373;28;20303;-76
2023/12/21 13:20:42;;;;;;;0.00;0.00;;;;;;;;;;10282571;28;20220;-78
2023/12/21 13:25:43;;;;;;;0.00;0.00;;;;;;;;;;10329134;28;20726;-77
2023/12/21 13:30:45;;;;;;;0.00;0.00;;;;;;;;;;10323170;28;20710;-81
2023/12/21 13:35:46;;;;;;;0.00;0.00;;;;;;;;;;10327849;28;20238;-77
2023/12/21 13:40:47;;;;;;;0.20;0.10;;;;;;;;;;10310693;28;20208;-78
2023/12/21 13:45:48;;;;;;;0.05;0.05;;;;;;;;;;10323112;28;20224;-78
2023/12/21 13:50:49;;;;;;;1.08;0.10;;;;;;;;;;10316309;28;20220;-79
2023/12/21 13:55:50;;;;;;;0.55;0.20;;;;;;;;;;10317728;28;20212;-78
2023/12/21 14:00:51;;;;;;;0.25;0.20;;;;;;;;;;10316942;28;20922;-76
2023/12/21 14:05:52;;;;;;;0.20;0.20;;;;;;;;;;10317399;28;20228;-74
2023/12/21 14:10:53;;;;;;;0.10;0.10;;;;;;;;;;10323023;28;20298;-75
2023/12/21 14:15:54;;;;;;;0.15;0.15;;;;;;;;;;10334757;28;20215;-75
2023/12/21 14:20:56;;;;;;;3.10;0.20;;;;;;;;;;10331163;28;20239;-75
2023/12/21 14:25:57;;;;;;;0.10;0.10;;;;;;;;;;10332016;28;20266;-75
2023/12/21 14:30:58;;;;;;;0.55;0.17;;;;;;;;;;10331188;28;20754;-74
2023/12/21 14:35:59;;;;;;;0.73;0.32;;;;;;;;;;10330894;28;20698;-77
2023/12/21 14:41:00;;;;;;;0.00;0.00;;;;;;;;;;10329272;28;20223;-75
2023/12/21 14:46:01;;;;;;;0.40;0.15;;;;;;;;;;10335984;28;20302;-77
2023/12/21 14:51:03;;;;;;;3.55;0.10;;;;;;;;;;10333155;28;20250;-76
2023/12/21 14:56:04;;;;;;;0.10;0.10;;;;;;;;;;10315687;28;20394;-75
2023/12/21 15:01:06;;;;;;;0.25;0.10;;;;;;;;;;10329877;28;20216;-75
2023/12/21 15:06:07;;;;;;;0.52;0.20;;;;;;;;;;10316223;28;20292;-75
2023/12/21 15:11:08;;;;;;;0.10;0.10;;;;;;;;;;10316713;28;20212;-75
2023/12/21 15:16:09;;;;;;;0.60;0.10;;;;;;;;;;10329063;28;20312;-75
2023/12/21 15:21:11;;;;;;;0.95;0.20;;;;;;;;;;10321279;28;20223;-77
2023/12/21 15:26:12;;;;;;;0.65;0.30;;;;;;;;;;10283528;28;21509;-76
2023/12/21 15:31:13;;;;;;;1.27;0.20;;;;;;;;;;10273225;28;20222;-76
2023/12/21 15:36:15;;;;;;;1.25;0.20;;;;;;;;;;10285937;28;20207;-76
2023/12/21 15:41:17;;;;;;;0.52;0.30;;;;;;;;;;10254239;28;20204;-76
2023/12/21 15:46:19;;;;;;;5.60;0.95;;;;;;;;;;10254047;28;24004;-78
2023/12/21 15:51:21;;;;;;;0.55;0.52;;;;;;;;;;10294330;28;20711;-78
2023/12/21 15:56:22;;;;;;;1.75;0.22;;;;;;;;;;10291992;28;20212;-77
2023/12/21 16:01:23;;;;;;;4.53;0.20;;;;;;;;;;10285845;28;20621;-74
2023/12/21 16:06:24;;;;;;;2.63;0.30;;;;;;;;;;10294284;28;20208;-75
2023/12/21 16:11:26;;;;;;;2.95;0.35;;;;;;;;;;10296373;28;20228;-73
2023/12/21 16:16:27;;;;;;;2.47;0.40;;;;;;;;;;10299688;28;20657;-73
2023/12/21 16:21:28;;;;;;;2.88;0.30;;;;;;;;;;10295440;28;20208;-75
2023/12/21 16:26:29;;;;;;;2.35;0.30;;;;;;;;;;10294027;28;20215;-76
2023/12/21 16:31:31;;;;;;;1.38;0.20;;;;;;;;;;10289580;28;20275;-77
2023/12/21 16:36:32;;;;;;;1.73;0.38;;;;;;;;;;10295197;28;20216;-75
2023/12/21 16:41:33;;;;;;;1.77;0.30;;;;;;;;;;10292614;28;20231;-75
2023/12/21 16:46:34;;;;;;;0.60;0.30;;;;;;;;;;10290089;28;20308;-76
2023/12/21 16:51:35;;;;;;;1.65;0.40;;;;;;;;;;10286602;28;20220;-77
2023/12/21 16:56:36;;;;;;;2.45;0.68;;;;;;;;;;10283719;28;20220;-77
2023/12/21 17:01:37;;;;;;;1.80;0.30;;;;;;;;;;10285974;28;20219;-76
2023/12/21 17:06:38;;;;;;;2.20;0.20;;;;;;;;;;10274987;28;20220;-75
2023/12/21 17:11:39;;;;;;;0.30;0.22;;;;;;;;;;10266438;28;20276;-75
2023/12/21 17:16:40;;;;;;;2.53;0.50;;;;;;;;;;10280748;28;20224;-75
2023/12/21 17:21:41;;;;;;;1.38;0.30;;;;;;;;;;10282563;28;20312;-74
2023/12/21 17:26:42;;;;;;;1.27;0.45;;;;;;;;;;10282195;28;20217;-76
2023/12/21 17:31:43;;;;;;;0.50;0.50;;;;;;;;;;10294095;28;20695;-76
2023/12/21 17:36:45;;;;;;;1.60;0.65;;;;;;;;;;10289385;28;20440;-75
2023/12/21 17:41:49;;;;;;;1.67;0.60;;;;;;;;;;10277423;28;20233;-75
2023/12/21 17:46:50;;;;;;;2.08;0.38;;;;;;;;;;10283950;28;20231;-76
2023/12/21 17:51:51;;;;;;;4.53;0.38;;;;;;;;;;10285409;28;20218;-74
2023/12/21 17:56:52;;;;;;;1.25;0.45;;;;;;;;;;10287359;28;20282;-74
2023/12/21 18:01:53;;;;;;;4.13;0.60;;;;;;;;;;10269888;28;20209;-76
2023/12/21 18:06:54;;;;;;;4.15;0.55;;;;;;;;;;10291323;28;20264;-78
2023/12/21 18:11:55;;;;;;;5.57;0.73;;;;;;;;;;10283282;28;20225;-77
2023/12/21 18:16:56;;;;;;;2.10;0.35;;;;;;;;;;10293488;28;20690;-75
2023/12/21 18:21:57;;;;;;;3.20;0.60;;;;;;;;;;10272743;28;20212;-75
2023/12/21 18:26:58;;;;;;;5.38;0.60;;;;;;;;;;10285434;28;20220;-76
2023/12/21 18:31:59;;;;;;;4.15;0.77;;;;;;;;;;10288240;28;20213;-75
2023/12/21 18:37:01;;;;;;;9.43;0.77;;;;;;;;;;10278384;28;21340;-76
2023/12/21 18:42:02;;;;;;;4.32;0.85;;;;;;;;;;10272933;28;20234;-78
2023/12/21 18:47:03;;;;;;;6.53;0.68;;;;;;;;;;10281778;28;20228;-78
2023/12/21 18:52:04;;;;;;;3.00;0.57;;;;;;;;;;10275678;28;20217;-75
2023/12/21 18:57:06;;;;;;;6.15;1.08;;;;;;;;;;10264069;28;21003;-77
2023/12/21 19:02:07;;;;;;;4.82;1.02;;;;;;;;;;10278234;28;20263;-78
2023/12/21 19:07:08;;;;;;;8.98;0.93;;;;;;;;;;10288055;28;20643;-77
2023/12/21 19:12:10;;;;;;;4.70;1.02;;;;;;;;;;10279969;28;20228;-78
2023/12/21 19:17:11;;;;;;;5.55;0.80;;;;;;;;;;10281518;28;20568;-75
2023/12/21 19:22:12;;;;;;;4.97;0.65;;;;;;;;;;10279324;28;20303;-76
2023/12/21 19:27:13;;;;;;;3.75;1.05;;;;;;;;;;10296901;28;20303;-76
2023/12/21 19:32:14;;;;;;;5.95;0.77;;;;;;;;;;10279483;28;20227;-75
2023/12/21 19:37:17;;;;;;;4.47;1.23;;;;;;;;;;10274410;28;20212;-76
2023/12/21 19:42:18;;;;;;;13.23;1.27;;;;;;;;;;10277532;28;20227;-76
2023/12/21 19:47:20;;;;;;;6.72;1.20;;;;;;;;;;10273850;28;20229;-77
2023/12/21 19:52:21;;;;;;;12.05;0.75;;;;;;;;;;10278280;28;20204;-76
2023/12/21 19:57:22;;;;;;;6.43;1.27;;;;;;;;;;10267103;28;20687;-76
2023/12/21 20:02:23;;;;;;;13.63;1.25;;;;;;;;;;10278801;28;20869;-76
2023/12/21 20:07:24;;;;;;;5.72;1.52;;;;;;;;;;10281736;28;20242;-76
2023/12/21 20:12:25;;;;;;;10.43;1.05;;;;;;;;;;10282415;28;20224;-77
2023/12/21 20:17:26;;;;;;;14.40;1.35;;;;;;;;;;10283291;28;20573;-76
2023/12/21 20:22:28;;;;;;;5.45;1.25;;;;;;;;;;10292372;28;20710;-76
2023/12/21 20:27:29;;;;;;;10.18;2.22;;;;;;;;;;10293824;28;20224;-76
2023/12/21 20:32:31;;;;;;;5.28;1.15;;;;;;;;;;10288816;28;20343;-76
2023/12/21 20:37:32;;;;;;;6.18;1.00;;;;;;;;;;10295937;28;20278;-75
2023/12/21 20:42:33;;;;;;;3.90;1.02;;;;;;;;;;10296967;28;20220;-77
2023/12/21 20:47:34;;;;;;;8.40;2.08;;;;;;;;;;10296426;28;20221;-75
2023/12/21 20:52:35;;;;;;;8.32;1.30;;;;;;;;;;10294685;28;20850;-76
2023/12/21 20:57:36;;;;;;;12.52;1.10;;;;;;;;;;10309290;28;20212;-76
2023/12/21 21:02:37;;;;;;;8.52;1.38;;;;;;;;;;10301748;28;20561;-76
2023/12/21 21:07:40;;;;;;;19.92;2.25;;;;;;;;;;10291822;28;20221;-76
2023/12/21 21:12:41;;;;;;;8.30;1.08;;;;;;;;;;10307179;28;20263;-76
2023/12/21 21:17:42;;;;;;;6.05;1.42;;;;;;;;;;10276974;28;20705;-76
2023/12/21 21:22:43;;;;;;;2.17;0.73;;;;;;;;;;10294894;28;20216;-76
2023/12/21 21:27:44;;;;;;;2.30;0.88;;;;;;;;;;10290553;28;20233;-76
2023/12/21 21:32:45;;;;;;;8.30;1.10;;;;;;;;;;10287562;28;20736;-77
2023/12/21 21:37:46;;;;;;;7.38;1.48;;;;;;;;;;10289543;28;20217;-76
2023/12/21 21:42:47;;;;;;;10.20;1.17;;;;;;;;;;10293313;28;20225;-76
2023/12/21 21:47:48;;;;;;;7.00;1.23;;;;;;;;;;10291949;28;20225;-76
2023/12/21 21:52:50;;;;;;;9.23;1.30;;;;;;;;;;10264915;28;20227;-76
2023/12/21 21:57:50;;;;;;;7.65;1.08;;;;;;;;;;10270955;28;20213;-74
2023/12/21 22:02:51;;;;;;;4.97;0.90;;;;;;;;;;10297643;28;20216;-74
2023/12/21 22:07:52;;;;;;;11.68;1.48;;;;;;;;;;10284944;28;20212;-75
2023/12/21 22:12:53;;;;;;;4.07;1.30;;;;;;;;;;10291744;28;20294;-76
2023/12/21 22:17:55;;;;;;;0.77;0.77;;;;;;;;;;10290383;28;20248;-76
2023/12/21 22:22:55;;;;;;;6.68;1.35;;;;;;;;;;10287323;28;20213;-76
2023/12/21 22:27:57;;;;;;;2.83;1.17;;;;;;;;;;10292397;28;20213;-75
2023/12/21 22:32:58;;;;;;;14.63;1.15;;;;;;;;;;10286017;28;20249;-75
2023/12/21 22:37:59;;;;;;;3.63;0.70;;;;;;;;;;10287164;28;20425;-75
2023/12/21 22:43:00;;;;;;;9.98;0.90;;;;;;;;;;10295180;28;20225;-75
2023/12/21 22:48:01;;;;;;;5.28;1.30;;;;;;;;;;10290807;28;20633;-75
2023/12/21 22:53:02;;;;;;;3.50;1.10;;;;;;;;;;10298491;28;20209;-75
2023/12/21 22:58:04;;;;;;;7.30;0.93;;;;;;;;;;10286352;28;20231;-75
2023/12/21 23:03:05;;;;;;;2.92;0.60;;;;;;;;;;10283256;28;20278;-76
2023/12/21 23:08:06;;;;;;;2.13;0.85;;;;;;;;;;10285651;28;20224;-75
2023/12/21 23:13:07;;;;;;;4.28;0.85;;;;;;;;;;10289911;28;20217;-76
2023/12/21 23:18:08;;;;;;;10.88;1.42;;;;;;;;;;10285642;28;20220;-75
2023/12/21 23:23:09;;;;;;;6.72;0.60;;;;;;;;;;10286252;28;20220;-75
2023/12/21 23:28:10;;;;;;;2.42;0.63;;;;;;;;;;10290428;28;20266;-78
2023/12/21 23:33:13;;;;;;;3.65;0.68;;;;;;;;;;10291077;28;20223;-75
2023/12/21 23:38:14;;;;;;;3.13;0.70;;;;;;;;;;10285706;28;20347;-75
2023/12/21 23:43:15;;;;;;;1.75;0.40;;;;;;;;;;10282366;28;20373;-74
2023/12/21 23:48:16;;;;;;;4.45;0.50;;;;;;;;;;10295112;28;20225;-75
2023/12/21 23:53:17;;;;;;;7.05;0.70;;;;;;;;;;10291202;28;21215;-76
2023/12/21 23:58:18;;;;;;;4.43;0.82;;;;;;;;;;10293668;28;20703;-77
